Impacts TAF Board
For situational awareness. Not to be used for flight planning purposes.
IDs:

KDRT - Del Rio Intl, TX, US

Issued at 1127 UTC 23 Sep 2020
Updated at 1634 UTC 23 Sep 2020
Potential Impact None Slight Moderate High
Time1553Z 23/17Z 23/18Z 23/19Z 23/20Z 23/21Z 23/22Z 23/23Z 24/00Z 24/01Z 24/02Z 24/03Z 24/04Z 24/05Z>>
Type OBS PRVL PRVL PRVL PRVL PRVL PRVL PRVL PRVL PRVL PRVL PRVL PRVL PRVL
VIS 10 >6 >6 >6 >6 >6 >6 >6 >6 >6 >6 >6 >6 >6
CIG -- -- -- -- -- -- -- -- -- -- -- -- -- --
Cover CLR SKC SKC SKC SKC SKC SKC SKC SKC SKC SKC SKC SKC SKC
FltCat VFR VFR VFR VFR VFR VFR VFR VFR VFR VFR VFR VFR VFR VFR
WX -- -- -- -- -- -- -- -- -- -- -- -- -- --
WDir VRB 110 110 110 110 110 110 110 110 110 110 110 110 110
WSpd 0 7 7 7 7 7 7 7 7 7 7 7 7 7
WGst -- -- -- -- -- -- -- -- -- -- -- -- -- --
R13/31
XWnd VRB 4 4 4 4 4 4 4 4 4 4 4 4 4
HWnd VRB 6 6 6 6 6 6 6 6 6 6 6 6 6
Raw TAF
KDRT 231127Z 2312/2412 36005KT P6SM SKC
  FM231700 11007KT P6SM SKC


Raw METAR
KDRT 231553Z AUTO 00000KT 10SM CLR 26/19 A3000 RMK AO2 SLP141 T02610194 TSNO
KDRT 231453Z AUTO 00000KT 10SM CLR 26/19 A2999 RMK AO2 SLP140 T02560189 53008 TSNO
KDRT 231353Z AUTO 00000KT 10SM CLR 23/19 A2998 RMK AO2 SLP136 T02280189 TSNO

METAR Board
Radar Display
Forecast Discussion
For situational awareness. Not to be used for flight planning purposes.